SASJ/JUJ METAR and TAF weather

Enter ICAO airport designator
Station Type Date Time Source
SASJ METAR 2021/05/15 22:00 UTC NOAA

SASJ 152200Z 09004KT 9999 FEW030 17/11 Q1018


Station Type Date Time Source
SASJ Decoded METAR 2021/05/15 22:00 UTC NOAA

Jujuy Aerodrome, Argentina (SASJ) 24-23S 065-05W 905M
May 15, 2021 - 06:00 PM EDT / 2021.05.15 2200 UTC
Wind: from the E (090 degrees) at 5 MPH (4 KT):0
Visibility: greater than 7 mile(s):0
Sky conditions: mostly clear
Temperature: 62 F (17 C)
Dew Point: 51 F (11 C)
Relative Humidity: 67%
Pressure (altimeter): 30.06 in. Hg (1018 hPa)
ob: SASJ 152200Z 09004KT 9999 FEW030 17/11 Q1018
cycle: 22

Station Type Date Time Source
SASJ TAF 2021/05/15 18:07 UTC NOAA

TAF SASJ 151700Z 1518/1618 05010KT 9999 SCT025 TX21/1618Z TN09/1610Z
BECMG 1523/1602 VRB03KT 9999 BKN030

Example: see airport list